Jacks Fork River (Missouri), Eminence (07066000)

StateMissouriCurrentGood (407 cfs)
RiverJacks Fork RiverFlood - The river is flooding. Obstacles can be treacherous or deadly. The river should be avoided at this stage for casual trips and definitely for the inexperienced. Trips should be attempted only with protective gear and equipment.Flood(none)
Updated2019-12-13 19:30 (1 hour ago)High - The river is high and potentially dangerous, especially for the young and / or inexperienced. Normal stream obstacles are sometimes difficult to navigate. Extended distances can be attempted, but canoe travel may not be advisable.High(none)
Discharge407 cfs (median: 260 cfs)Good - Conditions are ideal for a canoe or kayak. Boats typically will drag on fewer than one-quarter of riffles, if at all, and portages are unnecessary or rare. Normal float lengths can be attempted without a problem.Good200
Height2.94 feetLow - River is low but can still be floated. Some riffles are okay but most come with significant dragging and might need a portage. Float lengths should be reduced to accommodate low flow, dragging, and portages.Low(none)
TrendSteady (falling over 24 hours)Poor - River is too low to float comfortably. Most or all riffles will drag or must be portaged and some obstacles (such as slick shelf rock) cause undue problems. Avoid the river at this stage for casual paddling trips.Poor(none)
USGSExternal icon USGS Site for Eminence (07066000)LocationExternal icon Google Maps

Trending Data

Plot Image
ObservationHeightDischargeMaximum
Discharge
Minimum
Discharge
Mean
Discharge
P05P10P20P25P50
(Median)
P75P80P90P95
2019-12-13 19:30 2.94 407 5070 (1928) 97 (1956) 433 126 139 158 168 260 470 568 901 1290
2019-12-13 18:30 2.94 407 5070 (1928) 97 (1956) 433 126 139 158 168 260 470 568 901 1290
2019-12-13 17:30 2.94 407 5070 (1928) 97 (1956) 433 126 139 158 168 260 470 568 901 1290
2019-12-13 16:30 2.94 407 5070 (1928) 97 (1956) 433 126 139 158 168 260 470 568 901 1290
2019-12-13 15:30 2.95 411 5070 (1928) 97 (1956) 433 126 139 158 168 260 470 568 901 1290
2019-12-13 14:30 2.95 411 5070 (1928) 97 (1956) 433 126 139 158 168 260 470 568 901 1290
2019-12-13 13:30 2.95 411 5070 (1928) 97 (1956) 433 126 139 158 168 260 470 568 901 1290
2019-12-13 12:30 2.94 407 5070 (1928) 97 (1956) 433 126 139 158 168 260 470 568 901 1290
2019-12-12 21:30 2.96 416 2800 (1947) 99 (1956) 397 127 134 160 165 241 418 526 836 1380
2019-12-12 20:30 2.97 420 2800 (1947) 99 (1956) 397 127 134 160 165 241 418 526 836 1380
2019-12-12 19:30 2.97 420 2800 (1947) 99 (1956) 397 127 134 160 165 241 418 526 836 1380
2019-12-12 18:30 2.97 420 2800 (1947) 99 (1956) 397 127 134 160 165 241 418 526 836 1380
2019-12-12 17:30 2.97 420 2800 (1947) 99 (1956) 397 127 134 160 165 241 418 526 836 1380
2019-12-12 16:30 2.97 420 2800 (1947) 99 (1956) 397 127 134 160 165 241 418 526 836 1380
2019-12-12 15:30 2.97 420 2800 (1947) 99 (1956) 397 127 134 160 165 241 418 526 836 1380
2019-12-12 14:30 2.98 425 2800 (1947) 99 (1956) 397 127 134 160 165 241 418 526 836 1380
2019-12-12 13:30 2.98 425 2800 (1947) 99 (1956) 397 127 134 160 165 241 418 526 836 1380
2019-12-12 12:30 2.99 429 2800 (1947) 99 (1956) 397 127 134 160 165 241 418 526 836 1380
2019-12-12 11:30 2.99 429 2800 (1947) 99 (1956) 397 127 134 160 165 241 418 526 836 1380
2019-12-12 10:30 2.99 429 2800 (1947) 99 (1956) 397 127 134 160 165 241 418 526 836 1380
2019-12-12 09:30 3.00 434 2800 (1947) 99 (1956) 397 127 134 160 165 241 418 526 836 1380
2019-12-12 08:30 3.00 434 2800 (1947) 99 (1956) 397 127 134 160 165 241 418 526 836 1380
2019-12-12 07:30 2.99 429 2800 (1947) 99 (1956) 397 127 134 160 165 241 418 526 836 1380
2019-12-12 06:30 3.00 434 2800 (1947) 99 (1956) 397 127 134 160 165 241 418 526 836 1380
2019-12-12 05:30 3.00 434 2800 (1947) 99 (1956) 397 127 134 160 165 241 418 526 836 1380
2019-12-12 04:30 3.00 434 2800 (1947) 99 (1956) 397 127 134 160 165 241 418 526 836 1380
2019-12-12 03:30 3.00 434 2800 (1947) 99 (1956) 397 127 134 160 165 241 418 526 836 1380
2019-12-12 02:30 3.00 434 2800 (1947) 99 (1956) 397 127 134 160 165 241 418 526 836 1380
2019-12-12 01:30 3.01 439 2800 (1947) 99 (1956) 397 127 134 160 165 241 418 526 836 1380
2019-12-12 00:30 3.01 439 2800 (1947) 99 (1956) 397 127 134 160 165 241 418 526 836 1380
2019-12-11 23:30 3.01 439 2230 (2004) 97 (1956) 385 123 133 159 165 241 414 471 780 1310
2019-12-11 22:30 3.01 439 2230 (2004) 97 (1956) 385 123 133 159 165 241 414 471 780 1310
2019-12-11 21:30 3.01 439 2230 (2004) 97 (1956) 385 123 133 159 165 241 414 471 780 1310
2019-12-11 20:30 3.02 443 2230 (2004) 97 (1956) 385 123 133 159 165 241 414 471 780 1310
2019-12-11 19:30 3.02 443 2230 (2004) 97 (1956) 385 123 133 159 165 241 414 471 780 1310
2019-12-11 18:30 3.02 443 2230 (2004) 97 (1956) 385 123 133 159 165 241 414 471 780 1310
2019-12-11 17:30 3.03 448 2230 (2004) 97 (1956) 385 123 133 159 165 241 414 471 780 1310
2019-12-11 16:30 3.03 448 2230 (2004) 97 (1956) 385 123 133 159 165 241 414 471 780 1310
2019-12-11 15:30 3.03 448 2230 (2004) 97 (1956) 385 123 133 159 165 241 414 471 780 1310
2019-12-11 14:30 3.04 453 2230 (2004) 97 (1956) 385 123 133 159 165 241 414 471 780 1310
2019-12-11 13:30 3.05 457 2230 (2004) 97 (1956) 385 123 133 159 165 241 414 471 780 1310
2019-12-11 12:30 3.05 457 2230 (2004) 97 (1956) 385 123 133 159 165 241 414 471 780 1310
2019-12-11 11:30 3.05 457 2230 (2004) 97 (1956) 385 123 133 159 165 241 414 471 780 1310
2019-12-11 10:30 3.06 462 2230 (2004) 97 (1956) 385 123 133 159 165 241 414 471 780 1310
2019-12-11 09:30 3.07 467 2230 (2004) 97 (1956) 385 123 133 159 165 241 414 471 780 1310
2019-12-11 08:30 3.07 467 2230 (2004) 97 (1956) 385 123 133 159 165 241 414 471 780 1310
2019-12-11 07:30 3.07 467 2230 (2004) 97 (1956) 385 123 133 159 165 241 414 471 780 1310
2019-12-11 06:30 3.08 471 2230 (2004) 97 (1956) 385 123 133 159 165 241 414 471 780 1310
2019-12-11 05:30 3.07 467 2230 (2004) 97 (1956) 385 123 133 159 165 241 414 471 780 1310
2019-12-11 04:30 3.08 471 2230 (2004) 97 (1956) 385 123 133 159 165 241 414 471 780 1310
2019-12-11 03:30 3.08 471 2230 (2004) 97 (1956) 385 123 133 159 165 241 414 471 780 1310
2019-12-11 02:30 3.09 476 2230 (2004) 97 (1956) 385 123 133 159 165 241 414 471 780 1310
2019-12-11 01:30 3.09 476 2230 (2004) 97 (1956) 385 123 133 159 165 241 414 471 780 1310
2019-12-11 00:30 3.10 481 2230 (2004) 97 (1956) 385 123 133 159 165 241 414 471 780 1310
2019-12-10 23:30 3.10 481 4520 (1972) 97 (1956) 400 124 132 159 167 226 433 508 655 1040
2019-12-10 22:30 3.10 481 4520 (1972) 97 (1956) 400 124 132 159 167 226 433 508 655 1040
2019-12-10 21:30 3.10 481 4520 (1972) 97 (1956) 400 124 132 159 167 226 433 508 655 1040
2019-12-10 20:30 3.11 486 4520 (1972) 97 (1956) 400 124 132 159 167 226 433 508 655 1040
2019-12-10 19:30 3.11 486 4520 (1972) 97 (1956) 400 124 132 159 167 226 433 508 655 1040
2019-12-10 18:30 3.12 491 4520 (1972) 97 (1956) 400 124 132 159 167 226 433 508 655 1040
2019-12-10 17:30 3.12 491 4520 (1972) 97 (1956) 400 124 132 159 167 226 433 508 655 1040
2019-12-10 16:30 3.12 491 4520 (1972) 97 (1956) 400 124 132 159 167 226 433 508 655 1040
2019-12-10 15:30 3.12 491 4520 (1972) 97 (1956) 400 124 132 159 167 226 433 508 655 1040
2019-12-10 14:30 3.14 501 4520 (1972) 97 (1956) 400 124 132 159 167 226 433 508 655 1040
2019-12-10 13:30 3.13 496 4520 (1972) 97 (1956) 400 124 132 159 167 226 433 508 655 1040
2019-12-10 12:30 3.14 501 4520 (1972) 97 (1956) 400 124 132 159 167 226 433 508 655 1040
2019-12-10 11:30 3.14 501 4520 (1972) 97 (1956) 400 124 132 159 167 226 433 508 655 1040
2019-12-10 10:30 3.14 501 4520 (1972) 97 (1956) 400 124 132 159 167 226 433 508 655 1040
2019-12-10 09:30 3.15 506 4520 (1972) 97 (1956) 400 124 132 159 167 226 433 508 655 1040
2019-12-10 08:30 3.15 506 4520 (1972) 97 (1956) 400 124 132 159 167 226 433 508 655 1040
2019-12-10 07:30 3.15 506 4520 (1972) 97 (1956) 400 124 132 159 167 226 433 508 655 1040
2019-12-10 06:30 3.16 510 4520 (1972) 97 (1956) 400 124 132 159 167 226 433 508 655 1040
2019-12-10 05:30 3.15 506 4520 (1972) 97 (1956) 400 124 132 159 167 226 433 508 655 1040
2019-12-10 04:30 3.16 510 4520 (1972) 97 (1956) 400 124 132 159 167 226 433 508 655 1040
2019-12-10 03:30 3.16 510 4520 (1972) 97 (1956) 400 124 132 159 167 226 433 508 655 1040
2019-12-10 02:30 3.17 515 4520 (1972) 97 (1956) 400 124 132 159 167 226 433 508 655 1040
2019-12-10 01:30 3.17 515 4520 (1972) 97 (1956) 400 124 132 159 167 226 433 508 655 1040
2019-12-10 00:30 3.17 515 4520 (1972) 97 (1956) 400 124 132 159 167 226 433 508 655 1040
2019-12-09 23:30 3.16 510 1650 (1983) 102 (1956) 350 123 134 153 165 234 448 517 663 984
2019-12-09 22:30 3.15 506 1650 (1983) 102 (1956) 350 123 134 153 165 234 448 517 663 984
2019-12-09 21:30 3.15 506 1650 (1983) 102 (1956) 350 123 134 153 165 234 448 517 663 984
2019-12-09 20:30 3.15 506 1650 (1983) 102 (1956) 350 123 134 153 165 234 448 517 663 984
2019-12-09 19:30 3.16 510 1650 (1983) 102 (1956) 350 123 134 153 165 234 448 517 663 984
2019-12-09 18:30 3.17 515 1650 (1983) 102 (1956) 350 123 134 153 165 234 448 517 663 984
2019-12-09 17:30 3.15 506 1650 (1983) 102 (1956) 350 123 134 153 165 234 448 517 663 984
2019-12-09 16:30 3.19 525 1650 (1983) 102 (1956) 350 123 134 153 165 234 448 517 663 984
2019-12-09 15:30 3.16 510 1650 (1983) 102 (1956) 350 123 134 153 165 234 448 517 663 984
2019-12-09 14:30 3.16 510 1650 (1983) 102 (1956) 350 123 134 153 165 234 448 517 663 984
2019-12-09 13:30 3.19 525 1650 (1983) 102 (1956) 350 123 134 153 165 234 448 517 663 984
2019-12-09 12:30 3.20 530 1650 (1983) 102 (1956) 350 123 134 153 165 234 448 517 663 984
2019-12-09 11:30 3.20 530 1650 (1983) 102 (1956) 350 123 134 153 165 234 448 517 663 984
2019-12-09 10:30 3.20 530 1650 (1983) 102 (1956) 350 123 134 153 165 234 448 517 663 984
2019-12-09 09:30 3.21 536 1650 (1983) 102 (1956) 350 123 134 153 165 234 448 517 663 984
2019-12-09 08:30 3.20 530 1650 (1983) 102 (1956) 350 123 134 153 165 234 448 517 663 984
2019-12-09 07:30 3.21 536 1650 (1983) 102 (1956) 350 123 134 153 165 234 448 517 663 984
2019-12-09 06:30 3.21 536 1650 (1983) 102 (1956) 350 123 134 153 165 234 448 517 663 984
2019-12-09 05:30 3.21 536 1650 (1983) 102 (1956) 350 123 134 153 165 234 448 517 663 984
2019-12-09 04:30 3.21 536 1650 (1983) 102 (1956) 350 123 134 153 165 234 448 517 663 984
2019-12-09 03:30 3.22 541 1650 (1983) 102 (1956) 350 123 134 153 165 234 448 517 663 984
2019-12-09 02:30 3.22 541 1650 (1983) 102 (1956) 350 123 134 153 165 234 448 517 663 984
2019-12-09 01:30 3.22 541 1650 (1983) 102 (1956) 350 123 134 153 165 234 448 517 663 984
2019-12-09 00:30 3.22 541 1650 (1983) 102 (1956) 350 123 134 153 165 234 448 517 663 984
2019-12-08 23:30 3.22 541 1980 (1983) 99 (1956) 361 122 136 154 166 235 455 523 728 1080
2019-12-08 22:30 3.23 546 1980 (1983) 99 (1956) 361 122 136 154 166 235 455 523 728 1080
2019-12-08 21:30 3.23 546 1980 (1983) 99 (1956) 361 122 136 154 166 235 455 523 728 1080
2019-12-08 20:30 3.24 551 1980 (1983) 99 (1956) 361 122 136 154 166 235 455 523 728 1080
2019-12-08 19:30 3.23 546 1980 (1983) 99 (1956) 361 122 136 154 166 235 455 523 728 1080
2019-12-08 18:30 3.24 551 1980 (1983) 99 (1956) 361 122 136 154 166 235 455 523 728 1080
2019-12-08 17:30 3.24 551 1980 (1983) 99 (1956) 361 122 136 154 166 235 455 523 728 1080
2019-12-08 16:30 3.24 551 1980 (1983) 99 (1956) 361 122 136 154 166 235 455 523 728 1080
2019-12-08 15:30 3.25 556 1980 (1983) 99 (1956) 361 122 136 154 166 235 455 523 728 1080
2019-12-08 14:30 3.25 556 1980 (1983) 99 (1956) 361 122 136 154 166 235 455 523 728 1080
2019-12-08 13:30 3.25 556 1980 (1983) 99 (1956) 361 122 136 154 166 235 455 523 728 1080
2019-12-08 12:30 3.26 561 1980 (1983) 99 (1956) 361 122 136 154 166 235 455 523 728 1080
2019-12-08 11:30 3.26 561 1980 (1983) 99 (1956) 361 122 136 154 166 235 455 523 728 1080
2019-12-08 10:30 3.26 561 1980 (1983) 99 (1956) 361 122 136 154 166 235 455 523 728 1080
2019-12-08 09:30 3.27 566 1980 (1983) 99 (1956) 361 122 136 154 166 235 455 523 728 1080
2019-12-08 08:30 3.27 566 1980 (1983) 99 (1956) 361 122 136 154 166 235 455 523 728 1080
2019-12-08 07:30 3.27 566 1980 (1983) 99 (1956) 361 122 136 154 166 235 455 523 728 1080
2019-12-08 06:30 3.27 566 1980 (1983) 99 (1956) 361 122 136 154 166 235 455 523 728 1080
2019-12-08 05:30 3.28 572 1980 (1983) 99 (1956) 361 122 136 154 166 235 455 523 728 1080
2019-12-08 04:30 3.28 572 1980 (1983) 99 (1956) 361 122 136 154 166 235 455 523 728 1080
2019-12-08 03:30 3.28 572 1980 (1983) 99 (1956) 361 122 136 154 166 235 455 523 728 1080
2019-12-08 02:30 3.29 577 1980 (1983) 99 (1956) 361 122 136 154 166 235 455 523 728 1080
2019-12-08 01:30 3.29 577 1980 (1983) 99 (1956) 361 122 136 154 166 235 455 523 728 1080
2019-12-08 00:30 3.29 577 1980 (1983) 99 (1956) 361 122 136 154 166 235 455 523 728 1080
2019-12-07 23:30 3.30 582 2490 (1983) 99 (1956) 369 120 137 153 165 223 444 557 808 1050
2019-12-07 22:30 3.30 582 2490 (1983) 99 (1956) 369 120 137 153 165 223 444 557 808 1050
2019-12-07 21:30 3.31 587 2490 (1983) 99 (1956) 369 120 137 153 165 223 444 557 808 1050
2019-12-07 20:30 3.31 587 2490 (1983) 99 (1956) 369 120 137 153 165 223 444 557 808 1050
2019-12-07 19:30 3.32 593 2490 (1983) 99 (1956) 369 120 137 153 165 223 444 557 808 1050
2019-12-07 18:30 3.32 593 2490 (1983) 99 (1956) 369 120 137 153 165 223 444 557 808 1050
2019-12-07 17:30 3.33 598 2490 (1983) 99 (1956) 369 120 137 153 165 223 444 557 808 1050
2019-12-07 16:30 3.33 598 2490 (1983) 99 (1956) 369 120 137 153 165 223 444 557 808 1050
2019-12-07 15:30 3.33 598 2490 (1983) 99 (1956) 369 120 137 153 165 223 444 557 808 1050
2019-12-07 14:30 3.35 609 2490 (1983) 99 (1956) 369 120 137 153 165 223 444 557 808 1050
2019-12-07 13:30 3.35 609 2490 (1983) 99 (1956) 369 120 137 153 165 223 444 557 808 1050
2019-12-07 12:30 3.36 614 2490 (1983) 99 (1956) 369 120 137 153 165 223 444 557 808 1050
2019-12-07 11:30 3.36 614 2490 (1983) 99 (1956) 369 120 137 153 165 223 444 557 808 1050
2019-12-07 10:30 3.37 620 2490 (1983) 99 (1956) 369 120 137 153 165 223 444 557 808 1050
2019-12-07 09:30 3.38 625 2490 (1983) 99 (1956) 369 120 137 153 165 223 444 557 808 1050
2019-12-07 08:30 3.39 630 2490 (1983) 99 (1956) 369 120 137 153 165 223 444 557 808 1050
2019-12-07 07:30 3.39 630 2490 (1983) 99 (1956) 369 120 137 153 165 223 444 557 808 1050
2019-12-07 06:30 3.40 636 2490 (1983) 99 (1956) 369 120 137 153 165 223 444 557 808 1050
2019-12-07 05:30 3.40 636 2490 (1983) 99 (1956) 369 120 137 153 165 223 444 557 808 1050
2019-12-07 04:30 3.41 641 2490 (1983) 99 (1956) 369 120 137 153 165 223 444 557 808 1050
2019-12-07 03:30 3.41 641 2490 (1983) 99 (1956) 369 120 137 153 165 223 444 557 808 1050
2019-12-07 02:30 3.43 652 2490 (1983) 99 (1956) 369 120 137 153 165 223 444 557 808 1050
2019-12-07 01:30 3.43 652 2490 (1983) 99 (1956) 369 120 137 153 165 223 444 557 808 1050
2019-12-07 00:30 3.43 652 2490 (1983) 99 (1956) 369 120 137 153 165 223 444 557 808 1050
2019-12-06 23:30 3.43 652 3900 (1983) 86 (1957) 409 122 130 148 154 215 440 589 818 1150
2019-12-06 22:30 3.44 658 3900 (1983) 86 (1957) 409 122 130 148 154 215 440 589 818 1150
2019-12-06 21:30 3.45 664 3900 (1983) 86 (1957) 409 122 130 148 154 215 440 589 818 1150
2019-12-06 20:30 3.45 664 3900 (1983) 86 (1957) 409 122 130 148 154 215 440 589 818 1150
2019-12-06 19:30 3.46 669 3900 (1983) 86 (1957) 409 122 130 148 154 215 440 589 818 1150
2019-12-06 18:30 3.47 675 3900 (1983) 86 (1957) 409 122 130 148 154 215 440 589 818 1150
2019-12-06 17:30 3.48 681 3900 (1983) 86 (1957) 409 122 130 148 154 215 440 589 818 1150
2019-12-06 16:30 3.48 681 3900 (1983) 86 (1957) 409 122 130 148 154 215 440 589 818 1150
2019-12-06 15:30 3.48 681 3900 (1983) 86 (1957) 409 122 130 148 154 215 440 589 818 1150
2019-12-06 14:30 3.49 686 3900 (1983) 86 (1957) 409 122 130 148 154 215 440 589 818 1150
2019-12-06 13:30 3.50 692 3900 (1983) 86 (1957) 409 122 130 148 154 215 440 589 818 1150
2019-12-06 12:30 3.52 703 3900 (1983) 86 (1957) 409 122 130 148 154 215 440 589 818 1150
2019-12-06 11:30 3.52 703 3900 (1983) 86 (1957) 409 122 130 148 154 215 440 589 818 1150
2019-12-06 10:30 3.53 709 3900 (1983) 86 (1957) 409 122 130 148 154 215 440 589 818 1150
2019-12-06 09:30 3.54 715 3900 (1983) 86 (1957) 409 122 130 148 154 215 440 589 818 1150
2019-12-06 08:30 3.54 715 3900 (1983) 86 (1957) 409 122 130 148 154 215 440 589 818 1150
2019-12-06 07:30 3.54 715 3900 (1983) 86 (1957) 409 122 130 148 154 215 440 589 818 1150
2019-12-06 06:30 3.55 721 3900 (1983) 86 (1957) 409 122 130 148 154 215 440 589 818 1150
2019-12-06 05:30 3.56 726 3900 (1983) 86 (1957) 409 122 130 148 154 215 440 589 818 1150
2019-12-06 04:30 3.56 726 3900 (1983) 86 (1957) 409 122 130 148 154 215 440 589 818 1150
2019-12-06 03:30 3.58 738 3900 (1983) 86 (1957) 409 122 130 148 154 215 440 589 818 1150
2019-12-06 02:30 3.58 738 3900 (1983) 86 (1957) 409 122 130 148 154 215 440 589 818 1150
2019-12-06 01:30 3.59 744 3900 (1983) 86 (1957) 409 122 130 148 154 215 440 589 818 1150
2019-12-06 00:30 3.59 744 3900 (1983) 86 (1957) 409 122 130 148 154 215 440 589 818 1150

A total of 174 rows are displayed for years 1922 through 2018.

Trips for Jacks Fork River (Missouri), Eminence (07066000)

DateStartEndDistanceConditionDischargeHeightFishingDetails
Click for details2016-10-22 Eminence Shawnee Creek Total trip distance: 8.0 miles4.6 Good 241 2.23 Fair SMBSMB Fillmore, Allie
Fillmore, Brian
Fillmore, Jenny
Fillmore, Keith
Fillmore, Rebecca
Fillmore, Allie; Fillmore, Brian; Fillmore, Jenny; Fillmore, Keith; Fillmore, Rebecca
No notes for this trip<i>No notes for this trip</i> USGS Gauge Data:
Eminence (07066000)
Discharge: 241
Height: 2.23
<b>USGS Gauge Data:</b></br />Eminence (07066000)<br />Discharge: 241<br />Height: 2.23
Source: FillmoreSource: Fillmore
Click for details2016-10-23 Shawnee Creek Two Rivers Total trip distance: 8.0 miles3.4 Good 234 2.22 Fair SMBSMB Fillmore, Allie
Fillmore, Brian
Fillmore, Jenny
Fillmore, Keith
Fillmore, Rebecca
Fillmore, Allie; Fillmore, Brian; Fillmore, Jenny; Fillmore, Keith; Fillmore, Rebecca
No notes for this trip<i>No notes for this trip</i> USGS Gauge Data:
Eminence (07066000)
Discharge: 234
Height: 2.22
<b>USGS Gauge Data:</b></br />Eminence (07066000)<br />Discharge: 234<br />Height: 2.22
Source: FillmoreSource: Fillmore

A total of 2 rows are displayed.

Trip Summary for Jacks Fork River (Missouri), Eminence (07066000)

Miles8
Trips1
People5
Dates2
Years1
Months1
Rows2
Sources1

Condition Descriptions

Fishing Conditions

Fish Species

Notes

Classic Trip List

The classic River Trips application is still available for use. It is updated with the new system using a data retrofit. It is no longer maintained. The original River Trips application is no longer updated (as of 1 Dec 2016) but can be checked for errors or for the condition of the data before it was converted to the new system.